createdAt,value
2019-04-16T00:02:54.564Z,100885.91
2019-04-16T00:05:46.117Z,100886.84
2019-04-16T00:08:37.182Z,100908.75
2019-04-16T00:11:36.054Z,100908.75
2019-04-16T00:14:34.014Z,100912.88
2019-04-16T00:17:13.155Z,100910.77
2019-04-16T00:19:52.072Z,100905.51
2019-04-16T00:22:37.918Z,100911.65
2019-04-16T00:25:15.058Z,100917.44
2019-04-16T00:27:52.341Z,100926.55
2019-04-16T00:30:30.060Z,100927.91
2019-04-16T00:33:07.624Z,100932.80
2019-04-16T00:35:46.615Z,100929.22
2019-04-16T00:38:24.058Z,100939.56
2019-04-16T00:41:02.372Z,100939.13
2019-04-16T00:43:39.435Z,100947.05
2019-04-16T00:46:16.520Z,100955.12
2019-04-16T00:48:54.820Z,100960.30
2019-04-16T00:51:33.461Z,100965.50
2019-04-16T00:54:11.386Z,100981.28
2019-04-16T00:56:49.069Z,100977.52
2019-04-16T00:59:25.680Z,100987.55
2019-04-16T01:02:03.755Z,100993.17
2019-04-16T01:04:41.505Z,100994.89
2019-04-16T01:07:19.156Z,101000.28
2019-04-16T01:09:56.659Z,101006.94
2019-04-16T01:12:35.964Z,101011.05
2019-04-16T01:15:12.720Z,101015.48
2019-04-16T01:17:49.672Z,101015.27
2019-04-16T01:20:27.678Z,101018.00
2019-04-16T01:23:05.422Z,101022.03
2019-04-16T01:25:42.930Z,101018.64
2019-04-16T01:28:23.816Z,101021.00
2019-04-16T01:31:11.412Z,101013.73
2019-04-16T01:34:10.365Z,101023.48
2019-04-16T01:36:54.402Z,101030.16
2019-04-16T01:39:32.108Z,101033.42
2019-04-16T01:42:09.160Z,101044.42
2019-04-16T01:44:47.256Z,101050.83
2019-04-16T01:47:25.877Z,101060.62
2019-04-16T01:50:03.261Z,101067.66
2019-04-16T01:52:42.659Z,101066.78
2019-04-16T01:55:20.516Z,101063.73
2019-04-16T01:57:59.635Z,101061.17
2019-04-16T02:00:39.215Z,101066.49
2019-04-16T02:03:17.806Z,101070.47
2019-04-16T02:05:56.525Z,101072.55
2019-04-16T02:08:33.804Z,101075.98
2019-04-16T02:11:11.447Z,101073.80
2019-04-16T02:13:48.647Z,101079.48
2019-04-16T02:16:26.860Z,101087.29
2019-04-16T02:19:04.258Z,101089.12
2019-04-16T02:21:42.413Z,101085.88
2019-04-16T02:24:20.780Z,101075.17
2019-04-16T02:26:58.321Z,101082.13
2019-04-16T02:29:36.520Z,101085.09
2019-04-16T02:32:13.446Z,101085.48
2019-04-16T02:34:51.046Z,101086.69
2019-04-16T02:37:28.372Z,101086.94
2019-04-16T02:40:07.326Z,101084.03
2019-04-16T02:42:46.866Z,101077.49
2019-04-16T02:45:24.602Z,101074.95
2019-04-16T02:48:05.198Z,101075.95
2019-04-16T02:50:47.711Z,101071.66
2019-04-16T02:54:04.418Z,101071.66
2019-04-16T02:57:25.880Z,101075.59
2019-04-16T02:59:59.800Z,101070.76
2019-04-16T03:02:54.612Z,101070.10
2019-04-16T03:05:40.791Z,101072.81
2019-04-16T03:08:17.969Z,101073.41
2019-04-16T03:10:56.077Z,101069.68
2019-04-16T03:13:34.116Z,101062.09
2019-04-16T03:16:18.967Z,101061.30
2019-04-16T03:19:03.609Z,101056.08
2019-04-16T03:21:41.383Z,101051.66
2019-04-16T03:24:19.564Z,101052.28
2019-04-16T03:26:57.314Z,101050.45
2019-04-16T03:29:34.859Z,101045.28
2019-04-16T03:32:15.024Z,101042.75
2019-04-16T03:34:53.366Z,101049.16
2019-04-16T03:37:32.990Z,101045.00
2019-04-16T03:40:17.123Z,101039.80
2019-04-16T03:42:48.914Z,101038.81
2019-04-16T03:45:26.481Z,101037.64
2019-04-16T03:48:03.633Z,101031.77
2019-04-16T03:50:40.639Z,101032.07
2019-04-16T03:53:18.500Z,101032.45
2019-04-16T03:55:58.311Z,101031.16
2019-04-16T03:58:38.535Z,101027.20
2019-04-16T04:01:15.964Z,101029.41
2019-04-16T04:03:54.437Z,101021.66
2019-04-16T04:06:33.239Z,101026.34
2019-04-16T04:09:11.787Z,101021.45
2019-04-16T04:11:49.040Z,101021.92
2019-04-16T04:14:26.737Z,101021.20
2019-04-16T04:17:06.595Z,101026.33
2019-04-16T04:19:43.525Z,101021.59
2019-04-16T04:22:22.799Z,101010.31
2019-04-16T04:25:04.361Z,101010.45
2019-04-16T04:27:40.152Z,101018.22
2019-04-16T04:30:20.388Z,101009.62
2019-04-16T04:32:57.587Z,101009.98
2019-04-16T04:35:35.269Z,101002.91
2019-04-16T04:38:12.629Z,101008.53
2019-04-16T04:40:50.950Z,101004.40
2019-04-16T04:43:29.383Z,100998.78
2019-04-16T04:46:12.992Z,100990.97
2019-04-16T04:48:48.261Z,100985.88
2019-04-16T04:51:25.426Z,100992.09
2019-04-16T04:54:02.478Z,100981.68
2019-04-16T04:56:40.920Z,100978.86
2019-04-16T04:59:17.991Z,100970.66
2019-04-16T05:01:55.866Z,100974.81
2019-04-16T05:04:57.530Z,100968.05
2019-04-16T05:07:34.588Z,100972.82
2019-04-16T05:10:12.347Z,100969.67
2019-04-16T05:12:53.713Z,100966.23
2019-04-16T05:15:30.726Z,100964.61
2019-04-16T05:18:09.804Z,100948.25
2019-04-16T05:20:47.673Z,100948.28
2019-04-16T05:23:27.303Z,100950.07
2019-04-16T05:26:05.430Z,100939.80
2019-04-16T05:28:45.523Z,100938.20
2019-04-16T05:31:25.645Z,100934.67
2019-04-16T05:34:02.445Z,100922.56
2019-04-16T05:36:40.273Z,100920.27
2019-04-16T05:39:18.441Z,100932.98
2019-04-16T05:41:55.861Z,100918.45
2019-04-16T05:44:34.077Z,100916.68
2019-04-16T05:47:10.834Z,100917.01
2019-04-16T05:49:48.122Z,100910.67
2019-04-16T05:52:25.701Z,100903.73
2019-04-16T05:55:08.534Z,100895.77
2019-04-16T05:57:47.537Z,100893.70
2019-04-16T06:00:34.753Z,100889.16
2019-04-16T06:03:14.261Z,100883.62
2019-04-16T06:07:08.009Z,100876.80
2019-04-16T06:15:35.985Z,100862.48
2019-04-16T07:22:55.190Z,100718.09
2019-04-16T07:25:39.390Z,100720.43
2019-04-16T07:28:28.735Z,100714.84
2019-04-16T07:31:32.884Z,100704.97
2019-04-16T07:34:09.045Z,100697.33
2019-04-16T07:37:00.965Z,100694.49
2019-04-16T07:39:54.835Z,100693.34
2019-04-16T07:43:47.226Z,100686.17
2019-04-16T07:45:45.898Z,100695.44
2019-04-16T07:48:32.818Z,100679.56
2019-04-16T07:51:26.275Z,100672.51
2019-04-16T07:54:22.451Z,100668.99
2019-04-16T07:57:01.063Z,100665.52
2019-04-16T07:59:39.251Z,100655.55
2019-04-16T08:02:17.683Z,100646.33
2019-04-16T08:04:55.944Z,100641.75
2019-04-16T08:07:33.986Z,100642.36
2019-04-16T08:10:11.206Z,100630.94
2019-04-16T08:12:52.345Z,100626.28
2019-04-16T08:15:29.536Z,100625.12
2019-04-16T08:18:12.389Z,100617.34
2019-04-16T08:21:00.636Z,100615.83
2019-04-16T08:23:52.931Z,100614.52
2019-04-16T08:26:29.281Z,100617.22
2019-04-16T08:29:08.360Z,100602.86
2019-04-16T08:31:48.112Z,100592.61
2019-04-16T08:34:25.308Z,100588.06
2019-04-16T08:37:02.597Z,100578.33
2019-04-16T08:39:41.406Z,100571.27
2019-04-16T08:42:18.200Z,100574.08
2019-04-16T08:44:55.122Z,100565.05
2019-04-16T08:47:32.422Z,100568.68
2019-04-16T08:50:12.179Z,100570.03
2019-04-16T08:52:49.697Z,100564.42
2019-04-16T08:55:27.546Z,100559.77
2019-04-16T08:58:06.370Z,100553.53
2019-04-16T09:00:47.765Z,100548.47
2019-04-16T09:03:26.939Z,100549.13
2019-04-16T09:06:04.649Z,100532.84
2019-04-16T09:08:53.836Z,100535.72
2019-04-16T09:11:35.062Z,100532.88
2019-04-16T09:14:10.723Z,100537.69
2019-04-16T09:17:01.898Z,100540.23
2019-04-16T09:19:40.091Z,100531.66
2019-04-16T09:22:17.790Z,100531.96
2019-04-16T09:25:29.684Z,100535.34
2019-04-16T09:28:26.232Z,100526.13
2019-04-16T09:31:31.471Z,100521.64
2019-04-16T09:34:13.008Z,100525.34
2019-04-16T09:37:03.466Z,100530.72
2019-04-16T09:39:57.598Z,100534.41
2019-04-16T09:42:35.782Z,100537.51
2019-04-16T09:45:20.133Z,100541.73
2019-04-16T09:47:57.327Z,100541.01
2019-04-16T09:50:34.873Z,100533.45
2019-04-16T09:53:12.991Z,100530.90
2019-04-16T09:55:51.427Z,100531.03
2019-04-16T09:58:30.130Z,100538.92
2019-04-16T10:01:11.357Z,100535.91
2019-04-16T10:03:53.677Z,100529.52
2019-04-16T10:06:31.927Z,100529.64
2019-04-16T10:09:09.797Z,100535.19
2019-04-16T10:11:47.438Z,100542.98
2019-04-16T10:14:24.317Z,100544.06
2019-04-16T10:17:02.027Z,100546.80
2019-04-16T10:19:42.975Z,100556.91
2019-04-16T10:22:18.451Z,100566.01
2019-04-16T10:25:02.305Z,100565.54
2019-04-16T10:28:04.925Z,100576.78
2019-04-16T10:30:50.578Z,100581.00
2019-04-16T10:33:28.729Z,100585.06
2019-04-16T10:36:06.239Z,100586.70
2019-04-16T10:38:57.450Z,100588.34
2019-04-16T10:41:41.776Z,100589.59
2019-04-16T10:44:38.451Z,100593.45
2019-04-16T10:47:37.205Z,100594.12
2019-04-16T10:50:39.539Z,100592.46
2019-04-16T10:53:22.826Z,100603.39
2019-04-16T10:56:20.672Z,100626.99
2019-04-16T10:59:12.947Z,100632.66
2019-04-16T11:01:57.289Z,100639.64
2019-04-16T11:04:50.131Z,100648.33
2019-04-16T11:07:29.253Z,100653.47
2019-04-16T11:10:07.569Z,100656.92
2019-04-16T11:12:45.492Z,100653.01
2019-04-16T11:15:24.526Z,100663.50
2019-04-16T11:18:01.910Z,100657.17
2019-04-16T11:20:39.308Z,100666.94
2019-04-16T11:23:17.480Z,100662.14
2019-04-16T11:25:54.888Z,100672.05
2019-04-16T11:28:32.327Z,100675.47
2019-04-16T11:31:15.640Z,100682.71
2019-04-16T11:33:52.700Z,100693.77
2019-04-16T11:36:31.682Z,100698.56
2019-04-16T11:39:11.140Z,100706.39
2019-04-16T11:41:47.940Z,100715.43
2019-04-16T11:44:26.339Z,100718.02
2019-04-16T11:47:03.884Z,100713.68
2019-04-16T11:49:41.486Z,100704.02
2019-04-16T11:52:18.506Z,100707.50
2019-04-16T11:54:57.085Z,100710.52
2019-04-16T11:57:35.682Z,100729.39
2019-04-16T12:00:15.566Z,100727.99
2019-04-16T12:03:10.949Z,100731.83
2019-04-16T12:06:01.098Z,100734.33
2019-04-16T12:09:03.549Z,100732.92
2019-04-16T12:11:44.917Z,100739.66
2019-04-16T12:14:42.463Z,100742.34
2019-04-16T12:17:25.275Z,100749.13
2019-04-16T12:20:22.130Z,100761.25
2019-04-16T12:23:21.227Z,100755.67
2019-04-16T12:26:16.106Z,100760.34
2019-04-16T12:29:02.776Z,100761.51
2019-04-16T12:32:11.434Z,100765.69
2019-04-16T12:35:05.999Z,100767.80
2019-04-16T12:38:04.339Z,100772.66
2019-04-16T12:41:07.133Z,100781.03
2019-04-16T12:43:50.807Z,100795.98
2019-04-16T12:46:49.328Z,100790.91
2019-04-16T12:49:42.971Z,100797.03
2019-04-16T12:52:42.370Z,100775.79
2019-04-16T12:55:44.210Z,100786.23
2019-04-16T12:58:36.640Z,100795.67
2019-04-16T13:01:27.558Z,100797.81
2019-04-16T13:04:25.047Z,100805.86
2019-04-16T13:07:20.701Z,100809.15
2019-04-16T13:10:28.997Z,100811.41
2019-04-16T13:13:24.418Z,100805.52
2019-04-16T13:16:13.556Z,100807.06
2019-04-16T13:19:11.613Z,100814.11
2019-04-16T13:21:52.703Z,100819.35
2019-04-16T13:24:42.936Z,100823.86
2019-04-16T13:27:23.795Z,100829.91
2019-04-16T13:30:03.056Z,100836.80
2019-04-16T13:32:40.830Z,100842.30
2019-04-16T13:35:17.701Z,100859.83
2019-04-16T13:37:55.383Z,100872.88
2019-04-16T13:40:32.376Z,100871.27
2019-04-16T13:43:10.674Z,100873.06
2019-04-16T13:45:47.149Z,100861.72
2019-04-16T13:48:33.233Z,100864.91
2019-04-16T13:51:18.520Z,100864.15
2019-04-16T13:54:09.214Z,100866.16
2019-04-16T13:56:55.918Z,100862.82
2019-04-16T13:59:54.945Z,100856.81
2019-04-16T14:02:40.731Z,100859.73
2019-04-16T14:05:17.728Z,100869.31
2019-04-16T14:07:55.955Z,100867.79
2019-04-16T14:10:34.324Z,100862.70
2019-04-16T14:13:14.067Z,100873.78
2019-04-16T14:15:52.579Z,100874.51
2019-04-16T14:18:32.705Z,100887.87
2019-04-16T14:21:09.495Z,100883.48
2019-04-16T14:23:46.396Z,100880.31
2019-04-16T14:26:23.461Z,100873.52
2019-04-16T14:29:05.543Z,100879.56
2019-04-16T14:31:40.189Z,100880.93
2019-04-16T14:34:33.373Z,100888.92
2019-04-16T14:37:10.940Z,100900.14
2019-04-16T14:39:53.804Z,100911.25
2019-04-16T14:42:32.137Z,100904.73
2019-04-16T14:45:20.793Z,100901.08
2019-04-16T14:47:58.413Z,100904.76
2019-04-16T14:50:35.833Z,100906.28
2019-04-16T14:53:15.552Z,100905.77
2019-04-16T14:56:01.753Z,100907.81
2019-04-16T14:58:52.606Z,100913.41
2019-04-16T15:01:40.731Z,100914.57
2019-04-16T15:04:43.160Z,100911.23
2019-04-16T15:07:39.658Z,100919.79
2019-04-16T15:10:34.849Z,100924.23
2019-04-16T15:13:32.371Z,100931.34
2019-04-16T15:16:34.896Z,100936.35
2019-04-16T15:19:30.078Z,100938.78
2019-04-16T15:22:39.375Z,100938.58
2019-04-16T15:25:24.076Z,100945.69
2019-04-16T15:28:21.092Z,100944.39
2019-04-16T15:31:07.475Z,100931.91
2019-04-16T15:33:54.763Z,100937.97
2019-04-16T15:36:39.503Z,100952.51
2019-04-16T15:39:23.048Z,100956.28
2019-04-16T15:42:20.938Z,100957.41
2019-04-16T15:45:09.520Z,100957.23
2019-04-16T15:48:04.573Z,100947.81
2019-04-16T15:50:52.944Z,100956.33
2019-04-16T15:53:37.988Z,100969.10
2019-04-16T15:56:31.745Z,100974.77
2019-04-16T15:59:14.916Z,100974.84
2019-04-16T16:02:13.643Z,100976.56
2019-04-16T16:05:02.727Z,100976.72
2019-04-16T16:07:45.903Z,100968.55
2019-04-16T16:10:26.702Z,100963.30
2019-04-16T16:13:03.825Z,100954.63
2019-04-16T16:15:41.409Z,100954.61
2019-04-16T16:18:19.292Z,100940.90
2019-04-16T16:20:56.127Z,100932.94
2019-04-16T16:23:34.305Z,100926.50
2019-04-16T16:26:11.516Z,100937.36
2019-04-16T16:28:48.287Z,100936.67
2019-04-16T16:31:26.020Z,100946.89
2019-04-16T16:34:03.983Z,100935.91
2019-04-16T16:36:40.883Z,100942.33
2019-04-16T16:39:17.805Z,100936.70
2019-04-16T16:41:55.416Z,100939.09
2019-04-16T16:44:33.362Z,100943.72
2019-04-16T16:47:28.468Z,100951.75
2019-04-16T16:50:10.300Z,100947.42
2019-04-16T16:53:02.894Z,100939.28
2019-04-16T16:55:45.048Z,100946.50
2019-04-16T16:58:35.187Z,100938.23
2019-04-16T17:01:34.673Z,100939.09
2019-04-16T17:04:21.712Z,100940.12
2019-04-16T17:06:59.271Z,100936.98
2019-04-16T17:09:38.913Z,100929.33
2019-04-16T17:12:16.167Z,100919.16
2019-04-16T17:14:54.514Z,100897.87
2019-04-16T17:17:33.504Z,100908.66
2019-04-16T17:20:11.942Z,100899.38
2019-04-16T17:22:48.857Z,100905.89
2019-04-16T17:25:36.228Z,100907.50
2019-04-16T17:28:05.627Z,100900.94
2019-04-16T17:30:42.880Z,100900.14
2019-04-16T17:33:20.638Z,100891.28
2019-04-16T17:35:59.017Z,100888.03
2019-04-16T17:38:37.760Z,100878.63
2019-04-16T17:41:18.564Z,100875.34
2019-04-16T17:44:18.650Z,100874.02
2019-04-16T17:47:31.944Z,100867.02
2019-04-16T17:50:04.933Z,100872.73
2019-04-16T17:52:58.436Z,100863.77
2019-04-16T17:56:06.603Z,100861.13
2019-04-16T17:59:08.358Z,100858.70
2019-04-16T18:02:20.324Z,100864.66
2019-04-16T18:05:23.527Z,100860.55
2019-04-16T18:08:16.853Z,100827.16
2019-04-16T18:11:02.205Z,100827.16
2019-04-16T18:13:46.506Z,100844.69
2019-04-16T18:16:42.100Z,100845.25
2019-04-16T18:19:36.546Z,100835.86
2019-04-16T18:22:23.380Z,100829.84
2019-04-16T18:25:21.320Z,100838.67
2019-04-16T18:28:09.679Z,100835.09
2019-04-16T18:30:58.936Z,100837.14
2019-04-16T18:33:41.895Z,100836.53
2019-04-16T18:36:34.328Z,100832.72
2019-04-16T18:39:28.945Z,100824.86
2019-04-16T18:42:27.624Z,100824.00
2019-04-16T18:45:30.491Z,100831.33
2019-04-16T18:48:15.498Z,100817.01
2019-04-16T18:50:52.508Z,100811.80
2019-04-16T18:53:30.832Z,100810.94
2019-04-16T18:56:09.585Z,100814.53
2019-04-16T18:58:48.041Z,100821.32
2019-04-16T19:01:29.703Z,100829.30
2019-04-16T19:04:08.050Z,100816.63
2019-04-16T19:06:45.324Z,100813.57
2019-04-16T19:09:23.386Z,100810.78
2019-04-16T19:12:00.717Z,100805.61
2019-04-16T19:14:37.700Z,100800.61
2019-04-16T19:17:16.630Z,100795.99
2019-04-16T19:19:53.638Z,100792.17
2019-04-16T19:22:30.305Z,100788.63
2019-04-16T19:25:09.399Z,100784.38
2019-04-16T19:27:49.078Z,100781.16
2019-04-16T19:30:26.386Z,100775.73
2019-04-16T19:33:03.670Z,100778.45
2019-04-16T19:35:41.895Z,100775.02
2019-04-16T19:38:18.985Z,100778.20
2019-04-16T19:40:56.243Z,100777.36
2019-04-16T19:43:35.255Z,100778.89
2019-04-16T19:46:15.323Z,100782.70
2019-04-16T19:48:51.449Z,100774.41
2019-04-16T19:51:29.018Z,100770.91
2019-04-16T19:54:07.202Z,100765.23
2019-04-16T19:56:45.134Z,100764.42
2019-04-16T19:59:22.962Z,100761.30
2019-04-16T20:02:01.780Z,100772.87
2019-04-16T20:04:41.477Z,100756.23
2019-04-16T20:07:18.681Z,100758.23
2019-04-16T20:09:55.658Z,100759.95
2019-04-16T20:12:32.806Z,100757.59
2019-04-16T20:15:09.942Z,100754.89
2019-04-16T20:17:47.601Z,100755.39
2019-04-16T20:20:24.557Z,100757.23
2019-04-16T20:23:01.561Z,100752.78
2019-04-16T20:25:38.774Z,100755.80
2019-04-16T20:28:16.720Z,100758.80
2019-04-16T20:31:01.968Z,100751.43
2019-04-16T20:33:33.969Z,100766.75
2019-04-16T20:36:11.625Z,100762.19
2019-04-16T20:38:49.039Z,100763.70
2019-04-16T20:41:26.337Z,100766.44
2019-04-16T20:44:04.425Z,100765.13
2019-04-16T20:46:41.120Z,100754.39
2019-04-16T20:49:17.649Z,100754.82
2019-04-16T20:51:56.572Z,100753.94
2019-04-16T20:54:33.758Z,100755.86
2019-04-16T20:57:10.920Z,100764.04
2019-04-16T20:59:50.136Z,100762.42
2019-04-16T21:02:29.894Z,100761.81
2019-04-16T21:05:21.435Z,100765.89
2019-04-16T21:07:47.385Z,100761.02
2019-04-16T21:10:25.140Z,100770.00
2019-04-16T21:13:02.402Z,100769.60
2019-04-16T21:15:41.409Z,100775.75
2019-04-16T21:18:18.384Z,100774.41
2019-04-16T21:20:55.096Z,100777.30
2019-04-16T21:23:34.772Z,100779.39
2019-04-16T21:26:10.954Z,100788.34
2019-04-16T21:29:05.154Z,100787.50
2019-04-16T21:31:46.015Z,100796.19
2019-04-16T21:34:29.894Z,100805.11
2019-04-16T21:37:23.808Z,100797.70
2019-04-16T21:40:04.823Z,100797.13
2019-04-16T21:42:42.174Z,100801.73
2019-04-16T21:45:19.682Z,100793.64
2019-04-16T21:47:57.009Z,100796.91
2019-04-16T21:50:33.742Z,100791.55
2019-04-16T21:53:11.042Z,100798.33
2019-04-16T21:55:47.733Z,100794.24
2019-04-16T21:58:25.724Z,100793.31
2019-04-16T22:01:35.985Z,100788.34
2019-04-16T22:04:18.464Z,100783.61
2019-04-16T22:06:58.307Z,100794.52
2019-04-16T22:09:36.578Z,100800.86
2019-04-16T22:12:15.564Z,100793.84
2019-04-16T22:14:54.402Z,100796.70
2019-04-16T22:17:35.445Z,100799.31
2019-04-16T22:20:11.217Z,100808.03
2019-04-16T22:22:47.854Z,100810.41
2019-04-16T22:25:26.661Z,100812.59
2019-04-16T22:28:03.624Z,100815.98
2019-04-16T22:30:42.158Z,100810.95
2019-04-16T22:33:19.101Z,100822.03
2019-04-16T22:35:57.208Z,100812.53
2019-04-16T22:38:37.098Z,100812.56
2019-04-16T22:41:32.448Z,100809.41
2019-04-16T22:44:26.588Z,100810.61
2019-04-16T22:47:09.146Z,100811.52
2019-04-16T22:49:45.864Z,100807.95
2019-04-16T22:52:24.496Z,100803.31
2019-04-16T22:55:01.719Z,100804.60
2019-04-16T22:57:39.401Z,100809.27
2019-04-16T23:00:34.789Z,100802.78
2019-04-16T23:03:13.479Z,100808.00
2019-04-16T23:05:50.973Z,100806.95
2019-04-16T23:08:28.319Z,100802.53
2019-04-16T23:11:07.053Z,100803.55
2019-04-16T23:13:46.213Z,100814.06
2019-04-16T23:16:23.181Z,100818.77
2019-04-16T23:19:00.177Z,100825.34
2019-04-16T23:21:42.331Z,100825.23
2019-04-16T23:24:16.217Z,100828.45
2019-04-16T23:26:53.066Z,100836.00
2019-04-16T23:29:30.383Z,100847.39
2019-04-16T23:32:08.197Z,100851.94
2019-04-16T23:34:47.364Z,100862.70
2019-04-16T23:37:25.214Z,100871.88
2019-04-16T23:40:03.250Z,100872.19
2019-04-16T23:42:47.456Z,100881.66
2019-04-16T23:45:41.627Z,100885.51
2019-04-16T23:48:28.406Z,100885.30
2019-04-16T23:51:19.650Z,100893.61
2019-04-16T23:54:14.019Z,100889.67
2019-04-16T23:57:21.708Z,100897.06
